Time;durP1;ratioP1;P1;durP2;ratioP2;P2;SDS_P1;SDS_P2;PMS_P1;PMS_P2;Temp;Humidity;BMP_temperature;BMP_pressure;BME280_temperature;BME280_humidity;BME280_pressure;Samples;Min_cycle;Max_cycle;Signal;HPM_P1;HPM_P2
2024/04/16 00:02:44;;;;;;;;;;;;;;;5.43;100.00;94916.78;10956452;26;2927;-71
2024/04/16 00:07:48;;;;;;;;;;;;;;;5.37;100.00;94889.31;10952393;26;2925;-72
2024/04/16 00:12:52;;;;;;;;;;;;;;;5.35;100.00;94886.13;10954126;26;3154;-74
2024/04/16 00:17:57;;;;;;;;;;;;;;;5.33;100.00;94874.91;10952135;26;3246;-71
2024/04/16 00:23:01;;;;;;;;;;;;;;;5.08;100.00;94882.81;10947294;26;2995;-70
2024/04/16 00:28:05;;;;;;;;;;;;;;;5.13;100.00;94875.66;10948693;26;3079;-72
2024/04/16 00:33:09;;;;;;;;;;;;;;;5.05;100.00;94862.84;10962286;26;2849;-72
2024/04/16 00:38:14;;;;;;;;;;;;;;;5.12;100.00;94849.28;10932376;26;3250;-72
2024/04/16 00:43:18;;;;;;;;;;;;;;;4.96;100.00;94852.94;10964588;26;3114;-71
2024/04/16 00:48:23;;;;;;;;;;;;;;;4.80;100.00;94871.53;10957377;26;3083;-72
2024/04/16 00:53:29;;;;;;;;;;;;;;;4.64;100.00;94853.06;10952511;26;3048;-70
2024/04/16 00:58:33;;;;;;;;;;;;;;;4.66;100.00;94838.44;10952234;26;2972;-71
2024/04/16 01:03:38;;;;;;;;;;;;;;;4.48;100.00;94838.88;10924519;26;3118;-71
2024/04/16 01:08:42;;;;;;;;;;;;;;;4.50;100.00;94831.44;10950666;26;3131;-73
2024/04/16 01:13:47;;;;;;;;;;;;;;;4.55;100.00;94831.47;10954016;26;3078;-72
2024/04/16 01:18:52;;;;;;;;;;;;;;;4.55;100.00;94823.47;10953552;26;3163;-72
2024/04/16 01:23:56;;;;;;;;;;;;;;;4.30;100.00;94840.91;10951255;26;3167;-71
2024/04/16 01:29:00;;;;;;;;;;;;;;;4.38;100.00;94852.91;10956977;26;3143;-71
2024/04/16 01:34:06;;;;;;;;;;;;;;;4.30;100.00;94861.38;10922732;26;3105;-70
2024/04/16 01:39:10;;;;;;;;;;;;;;;4.36;100.00;94864.88;10949922;26;3122;-74
2024/04/16 01:44:14;;;;;;;;;;;;;;;4.33;100.00;94876.84;10954742;26;2981;-72
2024/04/16 01:49:19;;;;;;;;;;;;;;;4.40;100.00;94866.78;10953335;26;3201;-72
2024/04/16 01:54:23;;;;;;;;;;;;;;;4.33;100.00;94867.00;10963128;26;3126;-72
2024/04/16 01:59:27;;;;;;;;;;;;;;;4.22;100.00;94865.34;10923929;26;2983;-73
2024/04/16 02:04:31;;;;;;;;;;;;;;;4.06;100.00;94866.25;10947938;26;3107;-71
2024/04/16 02:09:38;;;;;;;;;;;;;;;4.04;100.00;94863.06;10950701;26;3051;-73
2024/04/16 02:14:42;;;;;;;;;;;;;;;4.13;100.00;94868.72;10949801;26;3226;-73
2024/04/16 02:19:46;;;;;;;;;;;;;;;3.93;100.00;94874.66;10952844;26;3249;-71
2024/04/16 02:24:50;;;;;;;;;;;;;;;3.84;100.00;94860.25;10954247;26;3123;-72
2024/04/16 02:29:55;;;;;;;;;;;;;;;4.00;100.00;94873.41;10943785;26;3178;-72
2024/04/16 02:34:59;;;;;;;;;;;;;;;4.13;100.00;94848.22;10948507;26;3078;-72
2024/04/16 02:40:04;;;;;;;;;;;;;;;4.08;100.00;94850.88;10948361;26;3126;-71
2024/04/16 02:45:08;;;;;;;;;;;;;;;3.98;100.00;94858.75;10948132;26;3096;-71
2024/04/16 02:50:12;;;;;;;;;;;;;;;4.09;100.00;94887.03;10951531;26;3114;-71
2024/04/16 02:55:17;;;;;;;;;;;;;;;3.50;100.00;94895.03;10947432;26;3143;-72
2024/04/16 03:00:21;;;;;;;;;;;;;;;3.33;100.00;94894.31;10953732;26;2988;-71
2024/04/16 03:05:25;;;;;;;;;;;;;;;3.36;100.00;94901.78;10952879;26;3023;-73
2024/04/16 03:10:30;;;;;;;;;;;;;;;3.24;100.00;94916.00;10955075;26;3162;-71
2024/04/16 03:15:34;;;;;;;;;;;;;;;3.17;100.00;94915.38;10951559;26;2975;-71
2024/04/16 03:20:38;;;;;;;;;;;;;;;3.12;100.00;94909.22;10950922;26;3185;-73
2024/04/16 03:25:43;;;;;;;;;;;;;;;3.10;100.00;94893.53;10925625;26;3146;-73
2024/04/16 03:30:47;;;;;;;;;;;;;;;3.07;100.00;94907.31;10954275;26;3122;-73
2024/04/16 03:35:52;;;;;;;;;;;;;;;2.95;100.00;94919.91;10954147;26;3125;-73
2024/04/16 03:40:56;;;;;;;;;;;;;;;3.00;100.00;94917.31;10955643;26;3053;-71
2024/04/16 03:46:02;;;;;;;;;;;;;;;2.95;100.00;94933.16;10956481;26;2849;-71
2024/04/16 03:51:06;;;;;;;;;;;;;;;3.13;100.00;94919.59;10959152;26;3242;-72
2024/04/16 03:56:10;;;;;;;;;;;;;;;3.02;100.00;94931.13;10953566;26;2841;-72
2024/04/16 04:01:15;;;;;;;;;;;;;;;3.19;100.00;94931.09;10955963;26;2850;-72
2024/04/16 04:06:19;;;;;;;;;;;;;;;3.16;100.00;94937.69;10956325;26;3328;-72
2024/04/16 04:11:23;;;;;;;;;;;;;;;3.10;100.00;94936.00;10928599;26;3118;-71
2024/04/16 04:16:28;;;;;;;;;;;;;;;3.09;100.00;94942.38;10948380;26;3145;-73
2024/04/16 04:21:33;;;;;;;;;;;;;;;3.21;100.00;94935.09;10962717;26;3230;-72
2024/04/16 04:26:37;;;;;;;;;;;;;;;3.13;100.00;94932.06;10958024;26;3024;-72
2024/04/16 04:31:41;;;;;;;;;;;;;;;3.20;100.00;94922.88;10954865;26;2973;-72
2024/04/16 04:36:45;;;;;;;;;;;;;;;3.25;100.00;94933.56;10959382;26;3119;-72
2024/04/16 04:41:50;;;;;;;;;;;;;;;3.13;100.00;94940.84;10933263;26;3383;-71
2024/04/16 04:46:55;;;;;;;;;;;;;;;3.16;100.00;94932.38;10959623;26;3206;-72
2024/04/16 04:51:59;;;;;;;;;;;;;;;3.12;100.00;94925.97;10961550;26;3202;-72
2024/04/16 04:57:04;;;;;;;;;;;;;;;3.12;100.00;94947.22;10955161;26;3288;-72
2024/04/16 05:02:09;;;;;;;;;;;;;;;3.11;100.00;94932.28;10954080;26;3174;-74
2024/04/16 05:07:13;;;;;;;;;;;;;;;3.08;100.00;94937.31;10957370;26;3217;-72
2024/04/16 05:12:18;;;;;;;;;;;;;;;3.07;100.00;94947.13;10950532;26;3246;-71
2024/04/16 05:17:22;;;;;;;;;;;;;;;3.14;100.00;94941.63;10955206;26;3131;-70
2024/04/16 05:22:27;;;;;;;;;;;;;;;3.24;100.00;94952.38;10955694;26;3060;-71
2024/04/16 05:27:31;;;;;;;;;;;;;;;3.21;100.00;94961.66;10951791;26;3242;-69
2024/04/16 05:32:36;;;;;;;;;;;;;;;3.36;100.00;94971.63;10961345;26;3142;-71
2024/04/16 05:37:40;;;;;;;;;;;;;;;3.39;100.00;94957.88;10960517;26;3003;-71
2024/04/16 05:42:45;;;;;;;;;;;;;;;3.55;100.00;94948.22;10956926;26;3018;-70
2024/04/16 05:47:49;;;;;;;;;;;;;;;3.72;100.00;94951.59;10957415;26;2988;-70
2024/04/16 05:52:53;;;;;;;;;;;;;;;3.84;100.00;94958.63;10952914;26;3380;-72
2024/04/16 05:57:58;;;;;;;;;;;;;;;3.92;100.00;94955.50;10949817;26;3114;-70
2024/04/16 06:03:02;;;;;;;;;;;;;;;4.16;100.00;94950.66;10955365;26;3237;-71
2024/04/16 06:08:07;;;;;;;;;;;;;;;4.23;100.00;94967.22;10952760;26;2933;-71
2024/04/16 06:13:11;;;;;;;;;;;;;;;4.41;100.00;94950.88;10918622;26;3115;-70
2024/04/16 06:18:16;;;;;;;;;;;;;;;4.42;100.00;94949.00;10917781;26;3237;-70
2024/04/16 06:23:22;;;;;;;;;;;;;;;4.45;100.00;94943.16;10945830;26;3291;-71
2024/04/16 06:28:27;;;;;;;;;;;;;;;4.48;100.00;94948.78;10945716;26;3221;-71
2024/04/16 06:33:33;;;;;;;;;;;;;;;4.86;100.00;94945.03;10951797;26;2968;-69
2024/04/16 06:38:37;;;;;;;;;;;;;;;4.99;100.00;94943.00;10944779;26;3098;-70
2024/04/16 06:43:41;;;;;;;;;;;;;;;5.21;100.00;94934.81;10920941;26;3067;-70
2024/04/16 06:48:45;;;;;;;;;;;;;;;5.43;100.00;94938.13;10923974;26;3250;-72
2024/04/16 06:54:04;;;;;;;;;;;;;;;5.69;100.00;94941.66;10950023;26;3151;-70
2024/04/16 06:59:09;;;;;;;;;;;;;;;5.74;100.00;94932.88;10948111;26;3134;-71
2024/04/16 07:04:13;;;;;;;;;;;;;;;6.82;100.00;94938.00;10949568;26;2921;-71
2024/04/16 07:09:18;;;;;;;;;;;;;;;6.42;100.00;94930.81;10949201;26;2865;-71
2024/04/16 07:14:22;;;;;;;;;;;;;;;6.13;100.00;94941.25;10942407;26;3110;-70
2024/04/16 07:19:26;;;;;;;;;;;;;;;5.93;100.00;94937.47;10946773;26;3032;-70
2024/04/16 07:24:31;;;;;;;;;;;;;;;6.03;100.00;94928.69;10920955;26;2895;-70
2024/04/16 07:29:35;;;;;;;;;;;;;;;6.77;100.00;94932.66;10942202;26;3091;-70
2024/04/16 07:34:40;;;;;;;;;;;;;;;6.91;100.00;94920.34;10948322;26;3249;-71
2024/04/16 07:39:44;;;;;;;;;;;;;;;6.71;100.00;94942.56;10951314;26;3000;-72
2024/04/16 07:44:49;;;;;;;;;;;;;;;7.05;100.00;94923.25;10949864;26;3257;-71
2024/04/16 07:49:53;;;;;;;;;;;;;;;6.45;100.00;94920.41;10959072;26;3116;-71
2024/04/16 07:54:58;;;;;;;;;;;;;;;5.82;100.00;94941.16;10958193;26;3261;-71
2024/04/16 08:00:03;;;;;;;;;;;;;;;5.75;100.00;94929.94;10955988;26;2956;-69
2024/04/16 08:05:10;;;;;;;;;;;;;;;5.17;100.00;94939.88;10958546;26;3225;-71
2024/04/16 08:10:48;;;;;;;;;;;;;;;4.94;100.00;94940.28;10840933;27;2867;-72
2024/04/16 08:15:52;;;;;;;;;;;;;;;5.32;100.00;94950.59;10816650;27;3023;-70
2024/04/16 08:20:56;;;;;;;;;;;;;;;5.72;100.00;94935.78;10828199;27;3265;-70
2024/04/16 08:26:01;;;;;;;;;;;;;;;6.12;100.00;94923.63;10834633;27;2789;-71
2024/04/16 08:31:12;;;;;;;;;;;;;;;7.02;100.00;94911.25;10826618;27;3176;-71
2024/04/16 08:36:16;;;;;;;;;;;;;;;7.23;100.00;94895.94;10838234;27;3290;-71
2024/04/16 08:41:21;;;;;;;;;;;;;;;7.24;100.00;94902.88;10815972;27;2970;-71
2024/04/16 08:46:26;;;;;;;;;;;;;;;7.95;100.00;94888.34;10822003;27;3163;-71
2024/04/16 08:51:31;;;;;;;;;;;;;;;8.95;100.00;94878.88;10832372;27;3561;-70
2024/04/16 08:56:36;;;;;;;;;;;;;;;10.01;100.00;94863.28;10827239;27;3125;-71
2024/04/16 09:01:42;;;;;;;;;;;;;;;9.05;100.00;94868.06;10830643;27;3246;-69
2024/04/16 09:06:46;;;;;;;;;;;;;;;7.85;100.00;94880.38;10839475;27;3288;-71
2024/04/16 09:11:51;;;;;;;;;;;;;;;7.76;100.00;94888.19;10834300;27;3146;-70
2024/04/16 09:16:57;;;;;;;;;;;;;;;8.23;100.00;94870.72;10819622;27;3193;-70
2024/04/16 09:22:01;;;;;;;;;;;;;;;8.24;100.00;94872.31;10833072;27;3506;-71
2024/04/16 09:27:06;;;;;;;;;;;;;;;7.98;100.00;94877.06;10828846;27;2758;-69
2024/04/16 09:32:11;;;;;;;;;;;;;;;8.23;100.00;94881.41;10823664;27;3618;-70
2024/04/16 09:37:16;;;;;;;;;;;;;;;8.36;100.00;94893.41;10817772;27;3134;-70
2024/04/16 09:42:21;;;;;;;;;;;;;;;8.70;100.00;94879.94;10809727;27;3101;-71
2024/04/16 09:47:25;;;;;;;;;;;;;;;9.00;100.00;94860.06;10827424;27;3007;-70
2024/04/16 09:52:29;;;;;;;;;;;;;;;9.53;100.00;94843.84;10830331;27;2739;-71
2024/04/16 09:57:33;;;;;;;;;;;;;;;9.74;100.00;94845.19;10830153;27;2978;-71
2024/04/16 10:02:38;;;;;;;;;;;;;;;9.19;100.00;94828.75;10822497;27;3125;-72
2024/04/16 10:07:42;;;;;;;;;;;;;;;9.03;100.00;94838.03;10823253;27;2852;-70
2024/04/16 10:12:47;;;;;;;;;;;;;;;9.05;100.00;94843.94;10828467;27;3149;-71
2024/04/16 10:17:52;;;;;;;;;;;;;;;9.70;100.00;94829.94;10960421;22;3131;-69
2024/04/16 10:22:56;;;;;;;;;;;;;;;9.74;100.00;94825.59;10960198;26;3028;-71
2024/04/16 10:28:01;;;;;;;;;;;;;;;9.93;100.00;94809.47;10952892;26;3146;-69
2024/04/16 10:33:06;;;;;;;;;;;;;;;10.40;97.98;94824.56;10947203;27;3277;-71
2024/04/16 10:38:10;;;;;;;;;;;;;;;10.97;100.00;94818.97;10954631;26;2856;-71
2024/04/16 10:43:14;;;;;;;;;;;;;;;10.72;88.79;94826.41;10954138;27;3170;-70
2024/04/16 10:48:22;;;;;;;;;;;;;;;9.84;95.66;94800.47;10955273;27;3099;-69
2024/04/16 10:53:26;;;;;;;;;;;;;;;10.33;96.74;94809.94;10922106;27;3236;-71
2024/04/16 10:58:31;;;;;;;;;;;;;;;10.80;91.08;94803.41;10916645;27;3429;-70
2024/04/16 11:03:35;;;;;;;;;;;;;;;10.38;93.59;94780.28;10951396;27;3193;-71
2024/04/16 11:08:40;;;;;;;;;;;;;;;10.23;91.90;94797.44;10952072;27;3120;-72
2024/04/16 11:13:45;;;;;;;;;;;;;;;10.01;95.01;94790.00;10912315;26;3134;-73
2024/04/16 11:18:49;;;;;;;;;;;;;;;10.63;88.69;94758.31;10961505;27;3004;-70
2024/04/16 11:23:57;;;;;;;;;;;;;;;11.15;83.33;94758.09;10963734;27;3139;-71
2024/04/16 11:29:01;;;;;;;;;;;;;;;11.12;80.05;94751.41;10960729;27;2876;-70
2024/04/16 11:34:06;;;;;;;;;;;;;;;11.18;77.09;94741.34;10960901;26;3162;-71
2024/04/16 11:39:10;;;;;;;;;;;;;;;11.43;82.42;94748.06;10958567;27;3032;-71
2024/04/16 11:44:14;;;;;;;;;;;;;;;11.63;68.30;94716.06;10962234;26;3047;-71
2024/04/16 11:49:19;;;;;;;;;;;;;;;11.26;70.72;94732.53;10957316;27;2996;-71
2024/04/16 11:54:23;;;;;;;;;;;;;;;11.17;70.73;94745.91;10959026;27;3511;-71
2024/04/16 11:59:27;;;;;;;;;;;;;;;11.17;68.40;94724.41;10958586;26;3114;-70
2024/04/16 12:04:31;;;;;;;;;;;;;;;11.10;73.42;94718.66;10958669;26;2955;-73
2024/04/16 12:09:36;;;;;;;;;;;;;;;11.50;74.00;94716.13;10960370;26;3230;-72
2024/04/16 12:14:40;;;;;;;;;;;;;;;11.47;74.36;94697.91;10957418;27;3203;-71
2024/04/16 12:19:44;;;;;;;;;;;;;;;11.02;71.97;94687.09;10961361;27;3226;-72
2024/04/16 12:24:49;;;;;;;;;;;;;;;11.89;72.19;94675.09;10928018;27;3106;-71
2024/04/16 12:29:55;;;;;;;;;;;;;;;11.14;70.27;94655.09;10954653;26;3165;-71
2024/04/16 12:35:03;;;;;;;;;;;;;;;11.43;76.02;94660.03;10957794;27;3262;-73
2024/04/16 12:40:19;;;;;;;;;;;;;;;11.44;74.65;94647.38;10802926;27;3145;-70
2024/04/16 12:45:26;;;;;;;;;;;;;;;11.42;74.35;94631.56;10812234;27;3243;-72
2024/04/16 12:50:30;;;;;;;;;;;;;;;11.51;70.08;94621.63;10813058;27;3149;-70
2024/04/16 12:55:34;;;;;;;;;;;;;;;11.18;67.76;94609.53;10810649;27;3229;-72
2024/04/16 13:00:38;;;;;;;;;;;;;;;11.37;65.74;94605.56;10803905;27;3124;-71
2024/04/16 13:05:43;;;;;;;;;;;;;;;11.93;64.24;94579.13;10811691;27;3218;-70
2024/04/16 13:10:48;;;;;;;;;;;;;;;11.92;63.29;94565.97;10808989;27;3104;-70
2024/04/16 13:15:54;;;;;;;;;;;;;;;11.93;62.72;94562.97;10808422;27;3176;-72
2024/04/16 13:20:58;;;;;;;;;;;;;;;11.96;64.92;94572.31;10810593;27;3223;-70
2024/04/16 13:26:03;;;;;;;;;;;;;;;11.78;67.80;94558.78;10807186;27;2987;-73
2024/04/16 13:31:07;;;;;;;;;;;;;;;11.55;67.72;94568.78;10812702;27;3432;-78
2024/04/16 13:36:12;;;;;;;;;;;;;;;11.50;65.28;94566.22;10805749;27;3136;-72
2024/04/16 13:41:16;;;;;;;;;;;;;;;11.64;71.40;94568.81;10804899;27;3137;-70
2024/04/16 13:46:23;;;;;;;;;;;;;;;12.09;65.27;94556.06;10805588;27;3175;-71
2024/04/16 13:51:27;;;;;;;;;;;;;;;11.72;62.16;94561.91;10808790;27;3122;-72
2024/04/16 13:56:32;;;;;;;;;;;;;;;11.32;63.57;94543.00;10811305;27;3070;-71
2024/04/16 14:01:36;;;;;;;;;;;;;;;11.25;62.69;94564.16;10805329;27;3053;-71
2024/04/16 14:06:40;;;;;;;;;;;;;;;11.55;66.87;94549.16;10807506;27;3215;-74
2024/04/16 14:11:45;;;;;;;;;;;;;;;11.69;62.32;94527.53;10804759;27;3475;-72
2024/04/16 14:16:50;;;;;;;;;;;;;;;11.61;64.17;94534.47;10806407;27;3137;-72
2024/04/16 14:21:54;;;;;;;;;;;;;;;11.78;63.69;94544.53;10803858;27;3062;-71
2024/04/16 14:27:01;;;;;;;;;;;;;;;11.84;64.17;94567.53;10800467;27;3129;-71
2024/04/16 14:32:06;;;;;;;;;;;;;;;11.48;62.93;94530.75;10804037;27;3138;-71
2024/04/16 14:37:11;;;;;;;;;;;;;;;11.66;65.21;94536.22;10810698;27;2976;-72
2024/04/16 14:42:17;;;;;;;;;;;;;;;11.72;63.02;94535.78;10800780;27;3132;-71
2024/04/16 14:47:21;;;;;;;;;;;;;;;11.29;64.79;94524.81;10804980;27;3235;-70
2024/04/16 14:52:26;;;;;;;;;;;;;;;11.44;67.06;94510.94;10812877;27;3720;-70
2024/04/16 14:57:31;;;;;;;;;;;;;;;11.49;63.57;94534.25;10811409;27;3014;-72
2024/04/16 15:02:35;;;;;;;;;;;;;;;11.69;75.50;94520.25;10813045;27;3271;-73
2024/04/16 15:07:40;;;;;;;;;;;;;;;11.96;80.75;94503.13;10820778;27;3331;-74
2024/04/16 15:12:44;;;;;;;;;;;;;;;11.53;73.32;94519.88;10819067;27;3010;-73
2024/04/16 15:17:48;;;;;;;;;;;;;;;11.00;67.94;94526.03;10823634;27;3117;-70
2024/04/16 15:22:52;;;;;;;;;;;;;;;10.72;74.07;94522.69;10825717;27;2847;-71
2024/04/16 15:27:57;;;;;;;;;;;;;;;10.65;74.04;94522.31;10830484;27;3121;-71
2024/04/16 15:33:01;;;;;;;;;;;;;;;10.58;79.10;94532.69;10823576;27;3132;-72
2024/04/16 15:38:05;;;;;;;;;;;;;;;10.68;77.72;94527.06;10817335;27;2964;-69
2024/04/16 15:43:10;;;;;;;;;;;;;;;10.93;75.43;94533.75;10822627;27;2987;-72
2024/04/16 15:48:14;;;;;;;;;;;;;;;10.73;72.20;94544.97;10822781;27;3602;-72
2024/04/16 15:53:19;;;;;;;;;;;;;;;10.26;72.93;94534.47;10797642;27;3128;-71
2024/04/16 15:58:25;;;;;;;;;;;;;;;10.20;72.93;94541.00;10822169;27;3101;-71
2024/04/16 16:03:29;;;;;;;;;;;;;;;10.08;75.16;94548.78;10827763;27;3030;-72
2024/04/16 16:08:34;;;;;;;;;;;;;;;10.02;79.71;94558.03;10828241;27;2998;-72
2024/04/16 16:13:38;;;;;;;;;;;;;;;10.11;83.03;94529.38;10823378;27;3115;-71
2024/04/16 16:18:43;;;;;;;;;;;;;;;10.21;85.06;94542.59;10820562;27;3026;-70
2024/04/16 16:23:47;;;;;;;;;;;;;;;10.14;86.85;94531.47;10818723;27;3243;-71
2024/04/16 16:28:52;;;;;;;;;;;;;;;10.12;89.93;94536.34;10821886;27;3407;-71
2024/04/16 16:33:56;;;;;;;;;;;;;;;9.96;95.40;94541.22;10822923;27;2571;-67
2024/04/16 16:39:00;;;;;;;;;;;;;;;9.86;94.87;94536.06;10818873;27;3372;-71
2024/04/16 16:44:05;;;;;;;;;;;;;;;9.88;95.79;94527.72;10820291;27;3172;-72
2024/04/16 16:49:09;;;;;;;;;;;;;;;9.80;96.62;94528.38;10825508;27;2883;-70
2024/04/16 16:54:13;;;;;;;;;;;;;;;9.62;97.26;94519.38;10820339;27;3139;-70
2024/04/16 16:59:17;;;;;;;;;;;;;;;9.67;98.58;94517.38;10815366;27;3110;-70
2024/04/16 17:04:22;;;;;;;;;;;;;;;9.66;100.00;94520.34;10813372;27;2994;-72
2024/04/16 17:09:28;;;;;;;;;;;;;;;9.52;100.00;94524.91;10814391;27;3133;-72
2024/04/16 17:14:32;;;;;;;;;;;;;;;9.45;100.00;94518.06;10814372;27;2911;-73
2024/04/16 17:19:36;;;;;;;;;;;;;;;9.44;100.00;94521.03;10810095;27;3114;-71
2024/04/16 17:24:41;;;;;;;;;;;;;;;9.36;100.00;94513.69;10812699;27;3032;-72
2024/04/16 17:29:48;;;;;;;;;;;;;;;9.31;100.00;94535.22;10809867;27;3046;-71
2024/04/16 17:34:55;;;;;;;;;;;;;;;9.39;100.00;94531.84;10782893;27;3146;-74
2024/04/16 17:39:59;;;;;;;;;;;;;;;9.17;100.00;94543.25;10813722;27;3148;-71
2024/04/16 17:45:04;;;;;;;;;;;;;;;8.93;100.00;94556.78;10815107;27;3221;-71
2024/04/16 17:50:10;;;;;;;;;;;;;;;8.95;100.00;94557.25;10800550;27;3230;-71
2024/04/16 17:55:24;;;;;;;;;;;;;;;8.81;100.00;94557.22;10804925;27;3147;-71
2024/04/16 18:00:29;;;;;;;;;;;;;;;8.83;100.00;94578.34;10811402;27;3239;-71
2024/04/16 18:05:33;;;;;;;;;;;;;;;8.86;100.00;94575.09;10818235;27;2950;-71
2024/04/16 18:10:38;;;;;;;;;;;;;;;8.84;100.00;94579.94;10786632;27;3135;-71
2024/04/16 18:15:42;;;;;;;;;;;;;;;8.81;100.00;94585.91;10815441;27;3112;-72
2024/04/16 18:20:46;;;;;;;;;;;;;;;8.77;100.00;94585.66;10809661;27;3045;-71
2024/04/16 18:25:51;;;;;;;;;;;;;;;8.63;100.00;94590.97;10810378;27;3291;-67
2024/04/16 18:30:55;;;;;;;;;;;;;;;8.62;100.00;94589.38;10806127;27;3199;-68
2024/04/16 18:36:00;;;;;;;;;;;;;;;8.60;100.00;94590.75;10808851;27;3292;-68
2024/04/16 18:41:05;;;;;;;;;;;;;;;8.60;100.00;94591.56;10805569;27;2966;-69
2024/04/16 18:46:11;;;;;;;;;;;;;;;8.51;100.00;94593.28;10802464;27;2835;-69
2024/04/16 18:51:15;;;;;;;;;;;;;;;8.48;100.00;94593.88;10831689;27;2587;-69
2024/04/16 18:56:19;;;;;;;;;;;;;;;8.41;100.00;94603.34;10837928;27;1907;-71
2024/04/16 19:01:24;;;;;;;;;;;;;;;8.35;100.00;94607.94;10830122;27;2144;-69
2024/04/16 19:06:30;;;;;;;;;;;;;;;8.28;100.00;94612.84;10836365;27;1950;-70
2024/04/16 19:11:36;;;;;;;;;;;;;;;8.14;100.00;94615.41;10822875;27;1917;-70
2024/04/16 19:16:41;;;;;;;;;;;;;;;8.16;100.00;94625.84;10836468;27;3061;-70
2024/04/16 19:21:46;;;;;;;;;;;;;;;8.08;100.00;94617.38;10825093;27;1795;-71
2024/04/16 19:26:51;;;;;;;;;;;;;;;7.83;100.00;94634.50;10827839;27;1914;-70
2024/04/16 19:31:55;;;;;;;;;;;;;;;7.62;100.00;94640.31;10841392;27;1949;-70
2024/04/16 19:36:59;;;;;;;;;;;;;;;7.53;100.00;94640.94;10835853;27;1893;-70
2024/04/16 19:42:06;;;;;;;;;;;;;;;7.48;100.00;94642.84;10838930;27;1780;-69
2024/04/16 19:47:10;;;;;;;;;;;;;;;7.36;100.00;94637.88;10832751;27;1901;-69
2024/04/16 19:52:14;;;;;;;;;;;;;;;7.32;100.00;94636.88;10833093;27;1582;-68
2024/04/16 19:57:19;;;;;;;;;;;;;;;7.23;100.00;94646.53;10834095;27;3189;-69
2024/04/16 20:02:23;;;;;;;;;;;;;;;7.08;100.00;94634.09;10839996;27;2017;-69
2024/04/16 20:07:27;;;;;;;;;;;;;;;6.96;100.00;94629.13;10843629;27;1803;-69
2024/04/16 20:12:31;;;;;;;;;;;;;;;6.86;100.00;94623.84;10849156;27;2011;-68
2024/04/16 20:17:36;;;;;;;;;;;;;;;6.81;100.00;94631.91;10845233;27;1857;-68
2024/04/16 20:22:40;;;;;;;;;;;;;;;6.73;100.00;94640.47;10829400;27;1831;-68
2024/04/16 20:27:45;;;;;;;;;;;;;;;6.65;100.00;94633.84;10831639;27;1965;-67
2024/04/16 20:32:49;;;;;;;;;;;;;;;6.56;100.00;94640.06;10830878;27;1682;-68
2024/04/16 20:37:54;;;;;;;;;;;;;;;6.48;100.00;94639.56;10789337;27;1908;-68
2024/04/16 20:42:58;;;;;;;;;;;;;;;6.50;100.00;94634.75;10827781;27;1839;-67
2024/04/16 20:48:03;;;;;;;;;;;;;;;6.41;100.00;94630.25;10826347;27;2066;-68
2024/04/16 20:53:07;;;;;;;;;;;;;;;6.39;100.00;94640.41;10826562;27;3366;-68
2024/04/16 20:58:11;;;;;;;;;;;;;;;6.27;100.00;94638.06;10828136;27;1935;-68
2024/04/16 21:03:16;;;;;;;;;;;;;;;6.16;100.00;94639.16;10822275;27;1739;-70
2024/04/16 21:08:20;;;;;;;;;;;;;;;6.12;100.00;94635.47;10781673;27;1986;-73
2024/04/16 21:13:24;;;;;;;;;;;;;;;6.08;100.00;94631.75;10822775;27;1887;-68
2024/04/16 21:18:29;;;;;;;;;;;;;;;6.00;100.00;94633.09;10837309;27;1909;-73
2024/04/16 21:23:33;;;;;;;;;;;;;;;6.00;100.00;94632.31;10824288;27;2492;-69
2024/04/16 21:28:37;;;;;;;;;;;;;;;6.02;100.00;94632.81;10805362;27;3192;-67
2024/04/16 21:33:41;;;;;;;;;;;;;;;5.95;100.00;94625.91;10809832;27;3116;-69
2024/04/16 21:38:46;;;;;;;;;;;;;;;5.92;100.00;94639.81;10809798;27;3350;-68
2024/04/16 21:43:50;;;;;;;;;;;;;;;5.89;100.00;94648.31;10804637;27;3154;-67
2024/04/16 21:48:54;;;;;;;;;;;;;;;6.01;100.00;94644.56;10818286;27;3252;-69
2024/04/16 21:53:58;;;;;;;;;;;;;;;6.02;100.00;94635.50;10810675;27;3060;-69
2024/04/16 21:59:04;;;;;;;;;;;;;;;5.99;100.00;94644.06;10804571;27;3152;-68
2024/04/16 22:04:08;;;;;;;;;;;;;;;5.85;100.00;94657.94;10808746;27;3164;-68
2024/04/16 22:09:13;;;;;;;;;;;;;;;5.75;100.00;94663.28;10809078;27;2919;-67
2024/04/16 22:14:17;;;;;;;;;;;;;;;5.73;100.00;94676.09;10811763;27;3176;-67
2024/04/16 22:19:21;;;;;;;;;;;;;;;5.74;100.00;94677.69;10809463;27;3140;-70
2024/04/16 22:24:25;;;;;;;;;;;;;;;5.73;100.00;94668.09;10804200;27;2945;-69
2024/04/16 22:29:30;;;;;;;;;;;;;;;5.86;100.00;94670.19;10810433;27;3255;-68
2024/04/16 22:34:34;;;;;;;;;;;;;;;5.87;100.00;94671.78;10804846;27;3112;-67
2024/04/16 22:39:38;;;;;;;;;;;;;;;5.99;100.00;94678.75;10801959;27;3225;-67
2024/04/16 22:44:43;;;;;;;;;;;;;;;5.93;100.00;94684.06;10802309;27;3145;-68
2024/04/16 22:49:47;;;;;;;;;;;;;;;5.89;100.00;94685.66;10812253;27;3153;-68
2024/04/16 22:54:51;;;;;;;;;;;;;;;5.90;100.00;94697.91;10804924;27;3038;-68
2024/04/16 22:59:56;;;;;;;;;;;;;;;5.88;100.00;94689.38;10811412;27;3132;-71
2024/04/16 23:05:01;;;;;;;;;;;;;;;6.08;100.00;94682.44;10813872;27;3053;-69
2024/04/16 23:10:05;;;;;;;;;;;;;;;6.10;100.00;94686.41;10804504;27;3216;-69
2024/04/16 23:15:09;;;;;;;;;;;;;;;6.14;100.00;94678.69;10810910;27;3149;-67
2024/04/16 23:20:14;;;;;;;;;;;;;;;6.17;100.00;94675.44;10820406;27;3043;-67
2024/04/16 23:25:18;;;;;;;;;;;;;;;6.22;100.00;94673.56;10811500;27;3180;-67
2024/04/16 23:30:22;;;;;;;;;;;;;;;6.17;100.00;94676.28;10808788;27;3212;-67
2024/04/16 23:35:26;;;;;;;;;;;;;;;6.15;100.00;94670.41;10814366;27;3231;-66
2024/04/16 23:40:31;;;;;;;;;;;;;;;6.09;100.00;94674.16;10819824;27;2871;-66
2024/04/16 23:45:35;;;;;;;;;;;;;;;6.01;100.00;94655.25;10808403;27;3055;-73
2024/04/16 23:50:39;;;;;;;;;;;;;;;5.91;100.00;94672.84;10811563;27;3125;-74
2024/04/16 23:55:44;;;;;;;;;;;;;;;5.82;100.00;94663.78;10813434;27;2879;-66
